createdAt,value
2018-08-11T00:00:47.631Z,21.55
2018-08-11T00:01:47.493Z,21.45
2018-08-11T00:02:47.502Z,21.17
2018-08-11T00:03:47.701Z,21.07
2018-08-11T00:04:47.529Z,20.69
2018-08-11T00:05:48.093Z,20.69
2018-08-11T00:06:47.558Z,20.78
2018-08-11T00:07:47.562Z,20.50
2018-08-11T00:08:47.552Z,20.40
2018-08-11T00:09:47.570Z,20.12
2018-08-11T00:10:47.599Z,20.40
2018-08-11T00:11:47.764Z,20.12
2018-08-11T00:12:47.624Z,20.12
2018-08-11T00:13:47.641Z,20.21
2018-08-11T00:14:47.627Z,20.12
2018-08-11T00:15:47.670Z,19.73
2018-08-11T00:16:47.821Z,20.21
2018-08-11T00:17:47.686Z,20.21
2018-08-11T00:18:47.695Z,20.31
2018-08-11T00:19:47.711Z,20.31
2018-08-11T00:20:47.738Z,20.12
2018-08-11T00:21:47.867Z,19.82
2018-08-11T00:22:47.752Z,20.02
2018-08-11T00:23:47.756Z,20.12
2018-08-11T00:24:47.767Z,20.31
2018-08-11T00:25:47.763Z,20.40
2018-08-11T00:26:47.944Z,20.88
2018-08-11T00:27:48.007Z,20.78
2018-08-11T00:28:47.818Z,20.98
2018-08-11T00:29:47.832Z,20.69
2018-08-11T00:30:47.839Z,20.69
2018-08-11T00:31:48.008Z,20.69
2018-08-11T00:32:47.842Z,20.31
2018-08-11T00:33:47.879Z,20.21
2018-08-11T00:34:47.890Z,20.59
2018-08-11T00:35:47.905Z,20.88
2018-08-11T00:36:47.915Z,20.69
2018-08-11T00:37:48.075Z,20.88
2018-08-11T00:38:47.925Z,20.59
2018-08-11T00:39:47.950Z,20.69
2018-08-11T00:40:47.960Z,20.69
2018-08-11T00:41:47.971Z,20.78
2018-08-11T00:42:48.395Z,20.98
2018-08-11T00:43:48.147Z,21.36
2018-08-11T00:44:48.213Z,21.45
2018-08-11T00:45:48.025Z,22.11
2018-08-11T00:46:48.037Z,21.73
2018-08-11T00:47:48.027Z,22.02
2018-08-11T00:48:48.208Z,22.50
2018-08-11T00:49:48.050Z,22.40
2018-08-11T00:50:48.464Z,22.31
2018-08-11T00:51:48.099Z,22.21
2018-08-11T00:52:48.109Z,22.11
2018-08-11T00:53:48.263Z,22.31
2018-08-11T00:54:48.128Z,22.31
2018-08-11T00:55:48.142Z,22.50
2018-08-11T00:56:48.133Z,22.31
2018-08-11T00:57:48.166Z,22.50
2018-08-11T00:58:48.326Z,22.21
2018-08-11T00:59:48.201Z,22.21
2018-08-11T01:00:48.209Z,22.11
2018-08-11T01:01:48.201Z,22.31
2018-08-11T01:02:48.221Z,22.31
2018-08-11T01:03:48.369Z,22.31
2018-08-11T01:04:48.247Z,22.50
2018-08-11T01:05:48.457Z,22.21
2018-08-11T01:06:48.274Z,22.31
2018-08-11T01:07:48.490Z,22.40
2018-08-11T01:08:48.446Z,22.31
2018-08-11T01:09:48.306Z,22.11
2018-08-11T01:10:48.342Z,22.21
2018-08-11T01:11:48.733Z,22.32
2018-08-11T01:12:48.543Z,22.22
2018-08-11T01:13:48.503Z,22.50
2018-08-11T01:14:48.347Z,22.69
2018-08-11T01:15:48.385Z,22.40
2018-08-11T01:16:48.387Z,22.98
2018-08-11T01:17:48.402Z,22.69
2018-08-11T01:18:48.570Z,22.88
2018-08-11T01:19:48.409Z,22.88
2018-08-11T01:20:48.434Z,22.88
2018-08-11T01:21:48.433Z,22.98
2018-08-11T01:22:48.465Z,22.88
2018-08-11T01:23:48.626Z,23.36
2018-08-11T01:24:48.483Z,23.27
2018-08-11T01:25:48.698Z,23.84
2018-08-11T01:26:48.508Z,23.74
2018-08-11T01:27:48.503Z,23.92
2018-08-11T01:28:48.689Z,24.40
2018-08-11T01:29:48.548Z,24.69
2018-08-11T01:30:48.554Z,24.59
2018-08-11T01:31:48.569Z,24.98
2018-08-11T01:32:48.584Z,25.16
2018-08-11T01:33:48.945Z,25.15
2018-08-11T01:34:48.802Z,25.25
2018-08-11T01:35:49.014Z,25.92
2018-08-11T01:36:48.621Z,25.82
2018-08-11T01:37:48.639Z,26.59
2018-08-11T01:38:48.794Z,26.40
2018-08-11T01:39:48.660Z,26.97
2018-08-11T01:40:48.671Z,27.36
2018-08-11T01:41:48.679Z,27.36
2018-08-11T01:42:48.690Z,27.55
2018-08-11T01:43:48.863Z,27.45
2018-08-11T01:44:48.723Z,27.73
2018-08-11T01:45:48.912Z,27.64
2018-08-11T01:46:48.743Z,27.93
2018-08-11T01:47:48.749Z,28.01
2018-08-11T01:48:48.897Z,28.11
2018-08-11T01:49:48.756Z,28.01
2018-08-11T01:50:48.786Z,28.49
2018-08-11T01:51:48.797Z,28.68
2018-08-11T01:52:48.805Z,28.49
2018-08-11T01:53:48.965Z,28.58
2018-08-11T01:54:48.815Z,28.58
2018-08-11T01:55:48.839Z,28.97
2018-08-11T01:56:48.854Z,29.35
2018-08-11T01:57:49.065Z,29.44
2018-08-11T01:58:48.854Z,29.25
2018-08-11T01:59:49.173Z,29.16
2018-08-11T02:00:48.898Z,29.54
2018-08-11T02:01:48.917Z,29.54
2018-08-11T02:02:48.923Z,29.83
2018-08-11T02:03:48.932Z,29.92
2018-08-11T02:04:48.937Z,29.92
2018-08-11T02:05:49.089Z,29.83
2018-08-11T02:06:49.169Z,29.83
2018-08-11T02:07:48.975Z,29.55
2018-08-11T02:08:49.193Z,29.46
2018-08-11T02:09:48.977Z,29.17
2018-08-11T02:10:49.359Z,29.36
2018-08-11T02:11:49.021Z,29.27
2018-08-11T02:12:49.037Z,29.27
2018-08-11T02:13:49.049Z,29.65
2018-08-11T02:14:49.255Z,29.46
2018-08-11T02:15:49.198Z,29.65
2018-08-11T02:16:49.074Z,29.55
2018-08-11T02:17:49.093Z,29.65
2018-08-11T02:18:49.096Z,29.74
2018-08-11T02:19:49.110Z,29.65
2018-08-11T02:20:49.256Z,29.84
2018-08-11T02:21:49.130Z,29.84
2018-08-11T02:22:49.157Z,29.94
2018-08-11T02:23:49.154Z,30.22
2018-08-11T02:24:49.182Z,30.80
2018-08-11T02:25:49.324Z,30.30
2018-08-11T02:26:49.184Z,30.59
2018-08-11T02:27:49.201Z,30.40
2018-08-11T02:28:49.212Z,30.88
2018-08-11T02:29:49.216Z,30.69
2018-08-11T02:30:49.380Z,31.16
2018-08-11T02:31:49.239Z,31.07
2018-08-11T02:32:49.249Z,31.35
2018-08-11T02:33:49.280Z,31.84
2018-08-11T02:34:49.685Z,31.35
2018-08-11T02:35:49.643Z,31.45
2018-08-11T02:36:49.500Z,31.84
2018-08-11T02:37:49.317Z,31.45
2018-08-11T02:38:49.535Z,31.84
2018-08-11T02:39:49.328Z,31.84
2018-08-11T02:40:49.488Z,31.93
2018-08-11T02:41:49.355Z,32.31
2018-08-11T02:42:49.349Z,32.41
2018-08-11T02:43:49.359Z,32.70
2018-08-11T02:44:49.367Z,32.50
2018-08-11T02:45:49.525Z,32.60
2018-08-11T02:46:49.609Z,32.79
2018-08-11T02:47:49.421Z,32.39
2018-08-11T02:48:49.426Z,32.78
2018-08-11T02:49:49.424Z,32.58
2018-08-11T02:50:49.604Z,33.15
2018-08-11T02:51:49.453Z,33.25
2018-08-11T02:52:49.471Z,33.92
2018-08-11T02:53:49.482Z,34.01
2018-08-11T02:54:49.495Z,33.64
2018-08-11T02:55:49.663Z,33.35
2018-08-11T02:56:49.512Z,33.54
2018-08-11T02:57:49.531Z,33.64
2018-08-11T02:58:49.520Z,33.36
2018-08-11T02:59:49.544Z,33.44
2018-08-11T03:00:49.715Z,33.35
2018-08-11T03:01:49.573Z,33.84
2018-08-11T03:02:49.579Z,33.83
2018-08-11T03:03:49.601Z,34.11
2018-08-11T03:04:49.616Z,34.20
2018-08-11T03:05:49.864Z,34.11
2018-08-11T03:06:49.607Z,34.40
2018-08-11T03:07:49.636Z,34.20
2018-08-11T03:08:49.649Z,34.40
2018-08-11T03:09:49.658Z,34.97
2018-08-11T03:10:49.798Z,34.86
2018-08-11T03:11:49.684Z,34.95
2018-08-11T03:12:49.692Z,34.77
2018-08-11T03:13:49.722Z,34.95
2018-08-11T03:14:49.706Z,35.24
2018-08-11T03:15:49.882Z,36.19
2018-08-11T03:16:49.740Z,36.19
2018-08-11T03:17:49.946Z,36.10
2018-08-11T03:18:49.757Z,36.00
2018-08-11T03:19:49.945Z,35.83
2018-08-11T03:20:49.920Z,36.00
2018-08-11T03:21:49.765Z,35.72
2018-08-11T03:22:49.795Z,35.72
2018-08-11T03:23:49.792Z,35.64
2018-08-11T03:24:49.818Z,35.64
2018-08-11T03:25:49.982Z,35.91
2018-08-11T03:26:49.840Z,36.00
2018-08-11T03:27:49.853Z,35.72
2018-08-11T03:28:49.859Z,35.91
2018-08-11T03:29:49.880Z,36.10
2018-08-11T03:30:49.887Z,36.19
2018-08-11T03:31:49.997Z,36.00
2018-08-11T03:32:49.902Z,36.00
2018-08-11T03:33:49.915Z,35.91
2018-08-11T03:34:49.903Z,36.29
2018-08-11T03:35:49.930Z,36.19
2018-08-11T03:36:50.299Z,36.10
2018-08-11T03:37:50.135Z,36.39
2018-08-11T03:38:49.943Z,36.10
2018-08-11T03:39:49.977Z,36.29
2018-08-11T03:40:49.988Z,35.83
2018-08-11T03:41:50.147Z,36.10
2018-08-11T03:42:50.006Z,36.19
2018-08-11T03:43:50.025Z,36.10
2018-08-11T03:44:50.027Z,36.77
2018-08-11T03:45:50.043Z,36.29
2018-08-11T03:46:50.185Z,36.00
2018-08-11T03:47:50.069Z,36.58
2018-08-11T03:48:50.074Z,36.48
2018-08-11T03:49:50.078Z,36.39
2018-08-11T03:50:50.092Z,36.58
2018-08-11T03:51:50.238Z,37.15
2018-08-11T03:52:50.519Z,36.77
2018-08-11T03:53:50.126Z,37.34
2018-08-11T03:54:50.134Z,38.10
2018-08-11T03:55:50.134Z,38.10
2018-08-11T03:56:50.401Z,38.30
2018-08-11T03:57:50.162Z,38.09
2018-08-11T03:58:50.190Z,37.92
2018-08-11T03:59:50.998Z,38.09
2018-08-11T04:00:50.180Z,38.30
2018-08-11T04:01:50.358Z,38.18
2018-08-11T04:02:50.217Z,38.47
2018-08-11T04:03:50.224Z,38.30
2018-08-11T04:04:50.240Z,37.90
2018-08-11T04:05:50.227Z,37.92
2018-08-11T04:06:50.413Z,38.39
2018-08-11T04:07:50.272Z,38.30
2018-08-11T04:08:50.279Z,38.18
2018-08-11T04:09:50.286Z,38.28
2018-08-11T04:10:50.304Z,38.37
2018-08-11T04:11:50.465Z,38.30
2018-08-11T04:12:50.302Z,38.28
2018-08-11T04:13:50.338Z,37.99
2018-08-11T04:14:50.343Z,37.80
2018-08-11T04:15:50.352Z,37.92
2018-08-11T04:16:50.614Z,38.01
2018-08-11T04:17:50.376Z,38.10
2018-08-11T04:18:50.387Z,38.01
2018-08-11T04:19:50.377Z,38.10
2018-08-11T04:20:50.403Z,38.10
2018-08-11T04:21:50.562Z,37.92
2018-08-11T04:22:50.423Z,37.92
2018-08-11T04:23:50.431Z,38.10
2018-08-11T04:24:50.440Z,37.92
2018-08-11T04:25:50.439Z,37.73
2018-08-11T04:26:50.615Z,38.01
2018-08-11T04:27:50.484Z,37.80
2018-08-11T04:28:50.490Z,37.99
2018-08-11T04:29:50.500Z,38.18
2018-08-11T04:30:50.710Z,37.99
2018-08-11T04:31:51.075Z,37.99
2018-08-11T04:32:50.737Z,38.47
2018-08-11T04:33:50.545Z,39.14
2018-08-11T04:34:50.753Z,39.15
2018-08-11T04:35:50.558Z,38.76
2018-08-11T04:36:50.716Z,38.66
2018-08-11T04:37:50.577Z,39.04
2018-08-11T04:38:50.587Z,39.14
2018-08-11T04:39:50.598Z,39.14
2018-08-11T04:40:50.792Z,39.32
2018-08-11T04:41:51.158Z,39.23
2018-08-11T04:42:50.629Z,39.14
2018-08-11T04:43:50.639Z,38.95
2018-08-11T04:44:50.647Z,38.47
2018-08-11T04:45:50.664Z,38.09
2018-08-11T04:46:50.924Z,38.20
2018-08-11T04:47:50.681Z,38.18
2018-08-11T04:48:50.677Z,37.99
2018-08-11T04:49:50.703Z,38.18
2018-08-11T04:50:50.711Z,38.10
2018-08-11T04:51:50.723Z,38.09
2018-08-11T04:52:50.879Z,37.99
2018-08-11T04:53:50.724Z,37.99
2018-08-11T04:54:50.733Z,38.18
2018-08-11T04:55:50.764Z,38.76
2018-08-11T04:56:50.953Z,38.76
2018-08-11T04:57:51.185Z,38.95
2018-08-11T04:58:50.798Z,38.95
2018-08-11T04:59:50.789Z,39.04
2018-08-11T05:00:50.833Z,38.95
2018-08-11T05:01:50.830Z,39.04
2018-08-11T05:02:50.834Z,39.14
2018-08-11T05:03:51.196Z,39.14
2018-08-11T05:04:50.849Z,39.04
2018-08-11T05:05:50.864Z,39.04
2018-08-11T05:06:51.077Z,39.42
2018-08-11T05:07:51.270Z,39.42
2018-08-11T05:08:50.877Z,39.23
2018-08-11T05:09:51.036Z,39.32
2018-08-11T05:10:50.909Z,39.31
2018-08-11T05:11:50.906Z,39.02
2018-08-11T05:12:50.930Z,39.22
2018-08-11T05:13:50.944Z,39.22
2018-08-11T05:14:51.104Z,40.36
2018-08-11T05:15:50.964Z,40.64
2018-08-11T05:16:50.977Z,40.83
2018-08-11T05:17:51.163Z,40.83
2018-08-11T05:18:50.996Z,41.31
2018-08-11T05:19:51.161Z,41.31
2018-08-11T05:20:51.015Z,40.93
2018-08-11T05:21:51.228Z,41.03
2018-08-11T05:22:51.045Z,41.22
2018-08-11T05:23:51.023Z,41.48
2018-08-11T05:24:51.206Z,41.96
2018-08-11T05:25:51.068Z,42.24
2018-08-11T05:26:51.078Z,42.82
2018-08-11T05:27:51.082Z,42.82
2018-08-11T05:28:51.091Z,42.82
2018-08-11T05:29:51.256Z,42.82
2018-08-11T05:30:51.112Z,42.82
2018-08-11T05:31:51.125Z,43.01
2018-08-11T05:32:51.112Z,43.10
2018-08-11T05:33:51.143Z,42.82
2018-08-11T05:34:51.304Z,42.72
2018-08-11T05:35:51.345Z,42.80
2018-08-11T05:36:51.178Z,43.37
2018-08-11T05:37:51.180Z,43.94
2018-08-11T05:38:51.190Z,44.32
2018-08-11T05:39:51.353Z,44.13
2018-08-11T05:40:51.410Z,44.04
2018-08-11T05:41:51.225Z,44.70
2018-08-11T05:42:51.226Z,44.51
2018-08-11T05:43:51.221Z,44.80
2018-08-11T05:44:51.397Z,44.70
2018-08-11T05:45:51.252Z,44.70
2018-08-11T05:46:51.269Z,44.60
2018-08-11T05:47:51.276Z,44.60
2018-08-11T05:48:51.285Z,44.70
2018-08-11T05:49:51.544Z,44.70
2018-08-11T05:50:51.312Z,44.51
2018-08-11T05:51:51.312Z,44.70
2018-08-11T05:52:51.325Z,44.80
2018-08-11T05:53:51.333Z,44.60
2018-08-11T05:54:51.494Z,44.70
2018-08-11T05:55:51.351Z,44.51
2018-08-11T05:56:51.365Z,44.89
2018-08-11T05:57:51.352Z,44.60
2018-08-11T05:58:51.382Z,44.80
2018-08-11T05:59:51.542Z,44.99
2018-08-11T06:00:51.397Z,45.47
2018-08-11T06:01:51.408Z,45.47
2018-08-11T06:02:51.416Z,45.56
2018-08-11T06:03:51.429Z,45.37
2018-08-11T06:04:51.570Z,45.28
2018-08-11T06:05:51.452Z,45.65
2018-08-11T06:06:51.463Z,46.13
2018-08-11T06:07:51.468Z,46.42
2018-08-11T06:08:51.477Z,46.23
2018-08-11T06:09:51.637Z,45.75
2018-08-11T06:10:51.694Z,45.73
2018-08-11T06:11:51.500Z,46.23
2018-08-11T06:12:51.714Z,46.23
2018-08-11T06:13:51.569Z,45.65
2018-08-11T06:14:51.867Z,46.13
2018-08-11T06:15:51.540Z,46.04
2018-08-11T06:16:51.748Z,46.01
2018-08-11T06:17:51.567Z,45.73
2018-08-11T06:18:51.790Z,46.01
2018-08-11T06:19:51.731Z,46.68
2018-08-11T06:20:51.785Z,46.68
2018-08-11T06:21:51.577Z,47.25
2018-08-11T06:22:51.790Z,47.06
2018-08-11T06:23:51.612Z,47.16
2018-08-11T06:24:51.775Z,47.16
2018-08-11T06:25:51.611Z,47.34
2018-08-11T06:26:51.638Z,47.54
2018-08-11T06:27:51.652Z,47.34
2018-08-11T06:28:51.660Z,47.92
2018-08-11T06:29:51.797Z,47.16
2018-08-11T06:30:51.683Z,47.92
2018-08-11T06:31:51.770Z,47.54
2018-08-11T06:32:51.696Z,47.92
2018-08-11T06:33:51.705Z,47.82
2018-08-11T06:34:51.863Z,47.92
2018-08-11T06:35:51.725Z,47.82
2018-08-11T06:36:51.732Z,47.25
2018-08-11T06:37:51.740Z,46.97
2018-08-11T06:38:51.751Z,47.16
2018-08-11T06:39:51.912Z,48.11
2018-08-11T06:40:51.875Z,48.02
2018-08-11T06:41:51.776Z,48.02
2018-08-11T06:42:51.791Z,48.11
2018-08-11T06:43:51.799Z,48.30
2018-08-11T06:44:51.786Z,48.87
2018-08-11T06:45:51.960Z,48.49
2018-08-11T06:46:51.897Z,48.30
2018-08-11T06:47:51.826Z,47.63
2018-08-11T06:48:51.837Z,47.92
2018-08-11T06:49:51.847Z,48.11
2018-08-11T06:50:51.859Z,48.21
2018-08-11T06:51:52.001Z,48.21
2018-08-11T06:52:51.872Z,48.11
2018-08-11T06:53:51.883Z,48.11
2018-08-11T06:54:51.898Z,48.58
2018-08-11T06:55:51.896Z,48.02
2018-08-11T06:56:52.059Z,47.73
2018-08-11T06:57:51.918Z,47.73
2018-08-11T06:58:51.933Z,48.02
2018-08-11T06:59:51.939Z,47.73
2018-08-11T07:00:51.942Z,47.54
2018-08-11T07:01:52.140Z,47.44
2018-08-11T07:02:51.962Z,47.25
2018-08-11T07:03:51.997Z,47.54
2018-08-11T07:04:51.984Z,47.73
2018-08-11T07:05:51.988Z,47.63
2018-08-11T07:06:52.205Z,47.25
2018-08-11T07:07:52.010Z,46.97
2018-08-11T07:08:52.001Z,47.04
2018-08-11T07:09:52.028Z,46.94
2018-08-11T07:10:52.240Z,47.13
2018-08-11T07:11:52.189Z,47.42
2018-08-11T07:12:52.046Z,47.23
2018-08-11T07:13:52.039Z,47.23
2018-08-11T07:14:52.077Z,47.61
2018-08-11T07:15:52.077Z,48.18
2018-08-11T07:16:52.336Z,48.08
2018-08-11T07:17:52.074Z,48.85
2018-08-11T07:18:52.104Z,48.68
2018-08-11T07:19:52.313Z,48.68
2018-08-11T07:20:52.123Z,48.78
2018-08-11T07:21:52.280Z,48.78
2018-08-11T07:22:52.134Z,48.21
2018-08-11T07:23:52.150Z,48.02
2018-08-11T07:24:52.156Z,47.54
2018-08-11T07:25:52.174Z,47.25
2018-08-11T07:26:52.328Z,47.16
2018-08-11T07:27:52.182Z,47.34
2018-08-11T07:28:52.189Z,46.58
2018-08-11T07:29:52.183Z,46.97
2018-08-11T07:30:52.205Z,46.87
2018-08-11T07:31:52.368Z,46.87
2018-08-11T07:32:52.231Z,46.94
2018-08-11T07:33:52.237Z,46.97
2018-08-11T07:34:52.239Z,46.75
2018-08-11T07:35:52.256Z,47.52
2018-08-11T07:36:52.416Z,48.27
2018-08-11T07:37:52.273Z,48.85
2018-08-11T07:38:52.283Z,48.21
2018-08-11T07:39:52.292Z,49.32
2018-08-11T07:40:52.294Z,49.13
2018-08-11T07:41:52.458Z,49.51
2018-08-11T07:42:52.324Z,49.54
2018-08-11T07:43:52.324Z,49.54
2018-08-11T07:44:52.328Z,49.54
2018-08-11T07:45:52.323Z,49.73
2018-08-11T07:46:52.602Z,50.11
2018-08-11T07:47:52.360Z,50.01
2018-08-11T07:48:52.368Z,49.54
2018-08-11T07:49:52.374Z,49.63
2018-08-11T07:50:52.366Z,49.82
2018-08-11T07:51:52.543Z,50.01
2018-08-11T07:52:52.397Z,49.82
2018-08-11T07:53:52.414Z,49.44
2018-08-11T07:54:52.423Z,48.78
2018-08-11T07:55:52.446Z,49.82
2018-08-11T07:56:52.589Z,49.54
2018-08-11T07:57:52.451Z,48.97
2018-08-11T07:58:52.437Z,48.68
2018-08-11T07:59:52.462Z,48.58
2018-08-11T08:00:52.476Z,48.13
2018-08-11T08:01:52.634Z,47.94
2018-08-11T08:02:52.490Z,47.47
2018-08-11T08:03:52.501Z,47.56
2018-08-11T08:04:52.510Z,47.37
2018-08-11T08:05:52.512Z,47.28
2018-08-11T08:06:52.683Z,47.18
2018-08-11T08:07:52.569Z,47.08
2018-08-11T08:08:52.542Z,47.28
2018-08-11T08:09:52.558Z,47.28
2018-08-11T08:10:52.558Z,47.28
2018-08-11T08:11:52.703Z,46.99
2018-08-11T08:12:52.583Z,46.89
2018-08-11T08:13:52.584Z,47.28
2018-08-11T08:14:52.598Z,46.87
2018-08-11T08:15:52.589Z,47.28
2018-08-11T08:16:52.753Z,46.99
2018-08-11T08:17:52.630Z,46.68
2018-08-11T08:18:52.633Z,47.16
2018-08-11T08:19:52.622Z,46.58
2018-08-11T08:20:52.658Z,46.78
2018-08-11T08:21:52.896Z,47.54
2018-08-11T08:22:52.673Z,47.16
2018-08-11T08:23:52.675Z,47.92
2018-08-11T08:24:52.686Z,48.11
2018-08-11T08:25:52.694Z,47.73
2018-08-11T08:26:52.715Z,47.44
2018-08-11T08:27:52.867Z,47.82
2018-08-11T08:28:52.721Z,49.16
2018-08-11T08:29:52.729Z,49.06
2018-08-11T08:30:52.742Z,49.73
2018-08-11T08:31:52.751Z,50.59
2018-08-11T08:32:52.744Z,50.68
2018-08-11T08:33:52.967Z,49.82
2018-08-11T08:34:52.752Z,49.63
2018-08-11T08:35:52.783Z,49.44
2018-08-11T08:36:52.793Z,49.04
2018-08-11T08:37:52.807Z,49.51
2018-08-11T08:38:52.806Z,49.80
2018-08-11T08:39:52.970Z,50.46
2018-08-11T08:40:52.807Z,50.85
2018-08-11T08:41:52.877Z,50.46
2018-08-11T08:42:52.833Z,50.75
2018-08-11T08:43:52.860Z,50.66
2018-08-11T08:44:52.860Z,50.66
2018-08-11T08:45:53.029Z,50.75
2018-08-11T08:46:52.866Z,51.04
2018-08-11T08:47:52.868Z,50.85
2018-08-11T08:48:52.893Z,51.14
2018-08-11T08:49:52.908Z,51.61
2018-08-11T08:50:53.065Z,52.09
2018-08-11T08:51:52.930Z,52.56
2018-08-11T08:52:52.935Z,52.84
2018-08-11T08:53:52.939Z,53.04
2018-08-11T08:54:52.947Z,52.56
2018-08-11T08:55:53.088Z,52.09
2018-08-11T08:56:52.972Z,51.89
2018-08-11T08:57:52.975Z,51.80
2018-08-11T08:58:52.970Z,51.89
2018-08-11T08:59:52.991Z,51.20
2018-08-11T09:00:53.155Z,50.73
2018-08-11T09:01:53.621Z,50.82
2018-08-11T09:02:53.012Z,50.82
2018-08-11T09:03:53.026Z,50.92
2018-08-11T09:04:53.070Z,51.87
2018-08-11T09:05:53.191Z,51.49
2018-08-11T09:06:53.053Z,51.97
2018-08-11T09:07:53.067Z,52.25
2018-08-11T09:08:53.069Z,52.82
2018-08-11T09:09:53.080Z,52.25
2018-08-11T09:10:53.230Z,51.97
2018-08-11T09:11:53.146Z,52.06
2018-08-11T09:12:53.102Z,52.25
2018-08-11T09:13:53.113Z,52.53
2018-08-11T09:14:53.119Z,53.94
2018-08-11T09:15:53.277Z,54.15
2018-08-11T09:16:53.135Z,55.10
2018-08-11T09:17:53.145Z,54.15
2018-08-11T09:18:53.132Z,53.67
2018-08-11T09:19:53.160Z,52.63
2018-08-11T09:20:53.313Z,52.53
2018-08-11T09:21:53.175Z,52.03
2018-08-11T09:22:53.508Z,52.03
2018-08-11T09:23:53.189Z,52.70
2018-08-11T09:24:53.205Z,54.03
2018-08-11T09:25:53.454Z,53.65
2018-08-11T09:26:53.210Z,54.13
2018-08-11T09:27:53.226Z,55.08
2018-08-11T09:28:53.233Z,54.79
2018-08-11T09:29:53.235Z,55.01
2018-08-11T09:30:53.500Z,55.29
2018-08-11T09:31:53.253Z,55.39
2018-08-11T09:32:53.467Z,54.15
2018-08-11T09:33:53.269Z,54.15
2018-08-11T09:34:53.463Z,54.44
2018-08-11T09:35:53.433Z,54.44
2018-08-11T09:36:53.497Z,53.96
2018-08-11T09:37:53.306Z,53.65
2018-08-11T09:38:53.311Z,53.58
2018-08-11T09:39:53.304Z,54.03
2018-08-11T09:40:53.479Z,54.60
2018-08-11T09:41:53.339Z,55.17
2018-08-11T09:42:53.345Z,56.05
2018-08-11T09:43:53.361Z,55.87
2018-08-11T09:44:53.361Z,55.29
2018-08-11T09:45:53.532Z,55.20
2018-08-11T09:46:53.379Z,55.10
2018-08-11T09:47:53.392Z,54.82
2018-08-11T09:48:53.396Z,54.44
2018-08-11T09:49:53.402Z,54.25
2018-08-11T09:50:53.558Z,54.82
2018-08-11T09:51:53.422Z,54.91
2018-08-11T09:52:53.421Z,56.05
2018-08-11T09:53:53.415Z,56.72
2018-08-11T09:54:53.448Z,56.05
2018-08-11T09:55:53.621Z,56.15
2018-08-11T09:56:53.435Z,56.63
2018-08-11T09:57:53.448Z,57.39
2018-08-11T09:58:53.470Z,56.82
2018-08-11T09:59:53.480Z,56.72
2018-08-11T10:00:54.044Z,57.39
2018-08-11T10:01:53.494Z,57.58
2018-08-11T10:02:53.489Z,57.48
2018-08-11T10:03:53.694Z,57.29
2018-08-11T10:04:53.524Z,57.48
2018-08-11T10:05:53.533Z,57.67
2018-08-11T10:06:53.670Z,57.29
2018-08-11T10:07:53.751Z,57.39
2018-08-11T10:08:53.558Z,57.67
2018-08-11T10:09:53.568Z,57.80
2018-08-11T10:10:53.577Z,57.48
2018-08-11T10:11:53.740Z,57.23
2018-08-11T10:12:53.587Z,57.23
2018-08-11T10:13:53.582Z,57.42
2018-08-11T10:14:53.589Z,57.60
2018-08-11T10:15:53.618Z,57.70
2018-08-11T10:16:53.774Z,57.60
2018-08-11T10:17:53.634Z,57.99
2018-08-11T10:18:53.641Z,57.80
2018-08-11T10:19:53.633Z,58.02
2018-08-11T10:20:53.861Z,57.92
2018-08-11T10:21:53.819Z,57.82
2018-08-11T10:22:53.679Z,57.73
2018-08-11T10:23:53.696Z,57.45
2018-08-11T10:24:53.683Z,57.54
2018-08-11T10:25:53.708Z,56.78
2018-08-11T10:26:53.851Z,57.00
2018-08-11T10:27:53.724Z,56.33
2018-08-11T10:28:53.733Z,55.57
2018-08-11T10:29:53.720Z,55.09
2018-08-11T10:30:53.752Z,55.00
2018-08-11T10:31:54.115Z,54.80
2018-08-11T10:32:53.767Z,54.33
2018-08-11T10:33:53.776Z,53.59
2018-08-11T10:34:53.790Z,53.97
2018-08-11T10:35:53.802Z,53.02
2018-08-11T10:36:53.810Z,52.55
2018-08-11T10:37:53.958Z,52.55
2018-08-11T10:38:53.834Z,52.19
2018-08-11T10:39:53.879Z,51.59
2018-08-11T10:40:53.852Z,50.95
2018-08-11T10:41:53.868Z,50.85
2018-08-11T10:42:54.123Z,49.90
2018-08-11T10:43:53.886Z,49.52
2018-08-11T10:44:53.892Z,48.37
2018-08-11T10:45:53.899Z,48.21
2018-08-11T10:46:53.921Z,47.34
2018-08-11T10:47:54.054Z,47.06
2018-08-11T10:48:53.930Z,46.87
2018-08-11T10:49:53.951Z,46.20
2018-08-11T10:50:53.962Z,45.75
2018-08-11T10:51:53.968Z,45.08
2018-08-11T10:52:54.124Z,44.31
2018-08-11T10:53:53.983Z,44.02
2018-08-11T10:54:53.999Z,43.48
2018-08-11T10:55:54.039Z,43.09
2018-08-11T10:56:54.002Z,41.75
2018-08-11T10:57:54.182Z,40.52
2018-08-11T10:58:54.026Z,40.13
2018-08-11T10:59:54.246Z,40.34
2018-08-11T11:00:54.075Z,39.20
2018-08-11T11:01:54.281Z,39.58
2018-08-11T11:02:54.239Z,38.83
2018-08-11T11:03:54.100Z,38.05
2018-08-11T11:04:54.122Z,37.88
2018-08-11T11:05:54.135Z,38.07
2018-08-11T11:06:54.148Z,38.07
2018-08-11T11:07:54.301Z,36.92
2018-08-11T11:08:54.170Z,36.36
2018-08-11T11:09:54.380Z,35.79
2018-08-11T11:10:54.204Z,35.50
2018-08-11T11:11:54.207Z,35.60
2018-08-11T11:12:54.367Z,34.45
2018-08-11T11:13:54.234Z,34.45
2018-08-11T11:14:54.434Z,33.69
2018-08-11T11:15:54.255Z,33.80
2018-08-11T11:16:54.475Z,33.99
2018-08-11T11:17:54.842Z,33.22
2018-08-11T11:18:54.280Z,33.89
2018-08-11T11:19:54.321Z,34.08
2018-08-11T11:20:54.376Z,33.32
2018-08-11T11:21:54.334Z,33.22
2018-08-11T11:22:54.487Z,33.80
2018-08-11T11:23:54.367Z,33.41
2018-08-11T11:24:54.385Z,32.65
2018-08-11T11:25:54.389Z,32.09
2018-08-11T11:26:54.401Z,31.30
2018-08-11T11:27:54.556Z,30.83
2018-08-11T11:28:54.411Z,30.44
2018-08-11T11:29:54.449Z,30.44
2018-08-11T11:30:54.459Z,30.35
2018-08-11T11:31:54.453Z,30.93
2018-08-11T11:32:54.644Z,31.12
2018-08-11T11:33:54.482Z,31.21
2018-08-11T11:34:54.522Z,31.12
2018-08-11T11:35:54.530Z,30.93
2018-08-11T11:36:54.537Z,31.12
2018-08-11T11:37:54.713Z,30.93
2018-08-11T11:38:54.552Z,31.40
2018-08-11T11:39:54.564Z,30.26
2018-08-11T11:40:54.602Z,30.16
2018-08-11T11:41:54.612Z,30.93
2018-08-11T11:42:54.781Z,30.93
2018-08-11T11:43:54.645Z,31.23
2018-08-11T11:44:54.658Z,29.88
2018-08-11T11:45:54.676Z,29.41
2018-08-11T11:46:54.679Z,29.41
2018-08-11T11:47:54.854Z,28.74
2018-08-11T11:48:54.701Z,28.16
2018-08-11T11:49:54.726Z,28.45
2018-08-11T11:50:54.745Z,28.37
2018-08-11T11:51:54.759Z,27.98
2018-08-11T11:52:54.775Z,28.17
2018-08-11T11:53:54.930Z,27.60
2018-08-11T11:54:54.808Z,27.98
2018-08-11T11:55:54.800Z,27.60
2018-08-11T11:56:54.833Z,27.41
2018-08-11T11:57:54.845Z,27.23
2018-08-11T11:58:55.014Z,26.75
2018-08-11T11:59:54.976Z,27.04
2018-08-11T12:00:54.890Z,25.89
2018-08-11T12:01:54.915Z,25.81
2018-08-11T12:02:55.328Z,25.71
2018-08-11T12:03:55.186Z,25.51
2018-08-11T12:04:54.951Z,25.99
2018-08-11T12:05:55.067Z,25.42
2018-08-11T12:06:54.988Z,25.32
2018-08-11T12:07:55.008Z,25.23
2018-08-11T12:08:55.168Z,24.85
2018-08-11T12:09:55.025Z,24.75
2018-08-11T12:10:55.026Z,24.18
2018-08-11T12:11:55.066Z,24.27
2018-08-11T12:12:55.063Z,24.28
2018-08-11T12:13:55.230Z,23.80
2018-08-11T12:14:55.087Z,23.99
2018-08-11T12:15:55.129Z,24.09
2018-08-11T12:16:55.140Z,23.80
2018-08-11T12:17:55.158Z,23.90
2018-08-11T12:18:55.321Z,24.09
2018-08-11T12:19:55.199Z,22.94
2018-08-11T12:20:55.212Z,23.13
2018-08-11T12:21:55.226Z,21.78
2018-08-11T12:22:55.244Z,22.46
2018-08-11T12:23:55.411Z,22.08
2018-08-11T12:24:55.274Z,22.08
2018-08-11T12:25:55.694Z,22.36
2018-08-11T12:26:55.310Z,22.94
2018-08-11T12:27:55.540Z,22.56
2018-08-11T12:28:55.495Z,22.66
2018-08-11T12:29:55.344Z,21.80
2018-08-11T12:30:55.359Z,21.70
2018-08-11T12:31:55.397Z,22.28
2018-08-11T12:32:56.200Z,21.32
2018-08-11T12:33:55.577Z,21.41
2018-08-11T12:34:55.447Z,21.33
2018-08-11T12:35:55.458Z,21.42
2018-08-11T12:36:55.478Z,20.18
2018-08-11T12:37:55.564Z,19.70
2018-08-11T12:38:56.379Z,19.42
2018-08-11T12:39:55.520Z,19.90
2018-08-11T12:40:55.556Z,20.09
2018-08-11T12:41:55.573Z,19.62
2018-08-11T12:42:55.590Z,19.62
2018-08-11T12:43:55.758Z,19.62
2018-08-11T12:44:55.826Z,18.28
2018-08-11T12:45:55.652Z,18.38
2018-08-11T12:46:55.658Z,18.95
2018-08-11T12:47:55.690Z,18.57
2018-08-11T12:48:55.843Z,17.88
2018-08-11T12:49:55.722Z,18.66
2018-08-11T12:50:55.740Z,19.04
2018-08-11T12:51:55.965Z,19.04
2018-08-11T12:52:55.779Z,19.71